Elmira Corning Regional Airport
KELM : now visible

Airfield :











YOU CAN JOIN US ON...

 
LOGIN :

Register | Disclaimer

   EN    FR    IT 

 









Legend :    VFR   Marginal VFR   IFR   Intensive IFR   Very Intensive IFR
Visi :
Ceiling :
>= 8 km
>= 3000ft
5 to 8 km
1000 to 3000 ft
1500m to 5 km
500 to 1000 ft
800 to 1500m
200 to 500 ft
< 800m
< 200 ft
Symbols :   Thunderstorms  Fog  Heavy snow  Heavy precipitations  Wind > 20 kt






- Airport Elevation : 954 ft
- IATA code : ELM


KELM - Elmira Corning Regional

CURRENT METAR :
  • 112053Z 22012KT 10SM FEW065 32/18 A2986 RMK AO2 SLP102 T03220183 56009

EXPIRED METARs :
  • 111953Z AUTO 23011KT 10SM FEW060 33/18 A2986 RMK AO2 SLP102 T03280183
  • 111853Z 22013G22KT 10SM CLR 33/18 A2987 RMK AO2 SLP106 T03280178

TAF KELM
Valid from the 11 at 18:00 until the 12 at 18:00 UTC


111731Z 1118/1218 23012G18KT P6SM SCT080
TEMPO 1121/1201 25014G22KT 4SM -TSRA OVC035CB
FM120100 27004KT P6SM BKN250
FM120500 28002KT 3/4SM BR BKN004
FM120700 00000KT 1/2SM FG VV001
FM121300 VRB04KT P6SM BKN250
KZNY FIR / North America



MET'MAP, your aeronautical weather chart ! - Copyright ORBIFLY December 2007 - Disclaimer

ORBIFLY MET'MAP TEAM :

Programming & Development : Alexandra Zaïnal
Concept & original design : Baudouin d'Aumeries
Assistance for programming : Marc-Olivier Méhu
Technical & hardware support : Manuel Goepfert

Contact : metmap@orbifly.com




SOURCES & CREDITS :

   NOAA       Earth
Advisory